Time;durP1;ratioP1;P1;durP2;ratioP2;P2;SDS_P1;SDS_P2;PMS_P1;PMS_P2;Temp;Humidity;BMP_temperature;BMP_pressure;BME280_temperature;BME280_humidity;BME280_pressure;Samples;Min_cycle;Max_cycle;Signal;HPM_P1;HPM_P2
2021/04/13 00:00:26;;;;;;;;;;;;;;;3.26;67.90;102037.94;5076714;28;19942;-77
2021/04/13 00:02:52;;;;;;;;;;;;;;;3.21;67.77;102038.56;5085931;28;19916;-77
2021/04/13 00:05:23;;;;;;;;;;;;;;;3.16;67.95;102038.34;5079525;28;20349;-78
2021/04/13 00:07:49;;;;;;;;;;;;;;;3.16;67.88;102045.75;5097967;28;20007;-77
2021/04/13 00:10:16;;;;;;;;;;;;;;;3.12;67.91;102037.06;5098198;28;19959;-77
2021/04/13 00:12:41;;;;;;;;;;;;;;;3.16;67.50;102040.25;5072288;28;19935;-77
2021/04/13 00:15:16;;;;;;;;;;;;;;;3.10;67.97;102045.50;5075571;28;19963;-77
2021/04/13 00:17:42;;;;;;;;;;;;;;;3.08;67.78;102039.38;5071377;28;20406;-78
2021/04/13 00:20:15;;;;;;;;;;;;;;;3.06;67.61;102035.97;5075869;28;19916;-78
2021/04/13 00:22:41;;;;;;;;;;;;;;;3.06;68.00;102029.66;5076622;28;19916;-77
2021/04/13 00:25:06;;;;;;;;;;;;;;;3.01;67.97;102029.41;5059661;28;19954;-77
2021/04/13 00:27:32;;;;;;;;;;;;;;;3.00;68.09;102027.75;5080601;28;19923;-77
2021/04/13 00:30:08;;;;;;;;;;;;;;;2.98;68.19;102032.59;5097306;28;19918;-77
2021/04/13 00:32:33;;;;;;;;;;;;;;;2.96;68.12;102037.47;5090488;28;19925;-77
2021/04/13 00:35:28;;;;;;;;;;;;;;;2.95;68.12;102030.25;5077293;28;19921;-77
2021/04/13 00:38:14;;;;;;;;;;;;;;;2.90;68.22;102026.25;5082644;28;19958;-77
2021/04/13 00:40:39;;;;;;;;;;;;;;;2.87;68.29;102021.19;5036718;28;19938;-77
2021/04/13 00:43:05;;;;;;;;;;;;;;;2.86;68.14;102019.47;5063400;28;20295;-77
2021/04/13 00:45:31;;;;;;;;;;;;;;;2.85;68.20;102025.16;5073424;28;19948;-77
2021/04/13 00:47:56;;;;;;;;;;;;;;;2.85;68.12;102020.53;5076623;28;19923;-77
2021/04/13 00:50:22;;;;;;;;;;;;;;;2.80;68.24;102025.78;5098133;28;19997;-77
2021/04/13 00:52:49;;;;;;;;;;;;;;;2.78;68.44;102016.91;5076302;28;19924;-77
2021/04/13 00:55:14;;;;;;;;;;;;;;;2.76;68.12;102019.03;5077395;28;19916;-77
2021/04/13 00:57:43;;;;;;;;;;;;;;;2.75;68.19;102017.31;5078092;28;19932;-77
2021/04/13 01:00:11;;;;;;;;;;;;;;;2.76;68.31;102023.63;5078025;28;19941;-77
2021/04/13 01:02:37;;;;;;;;;;;;;;;2.73;68.38;102018.56;5061185;28;19922;-77
2021/04/13 01:05:16;;;;;;;;;;;;;;;2.73;68.26;102019.44;5066806;28;19948;-77
2021/04/13 01:07:42;;;;;;;;;;;;;;;2.73;68.40;102016.69;5097288;28;19969;-77
2021/04/13 01:10:08;;;;;;;;;;;;;;;2.68;68.36;102014.56;5095752;28;19920;-77
2021/04/13 01:12:34;;;;;;;;;;;;;;;2.65;68.57;102011.38;5084304;28;19920;-77
2021/04/13 01:15:00;;;;;;;;;;;;;;;2.61;68.70;102013.66;5094866;28;19923;-77
2021/04/13 01:17:25;;;;;;;;;;;;;;;2.61;68.76;102008.19;5076323;28;19920;-77
2021/04/13 01:20:19;;;;;;;;;;;;;;;2.58;68.58;101996.78;5087735;28;19954;-77
2021/04/13 01:23:00;;;;;;;;;;;;;;;2.59;68.56;102001.22;5049725;28;19966;-77
2021/04/13 01:25:30;;;;;;;;;;;;;;;2.53;68.64;102002.03;5091283;28;20332;-77
2021/04/13 01:27:56;;;;;;;;;;;;;;;2.55;68.47;102005.41;5096023;28;20007;-77
2021/04/13 01:30:22;;;;;;;;;;;;;;;2.53;68.56;101997.38;5071497;28;19917;-77
2021/04/13 01:32:48;;;;;;;;;;;;;;;2.50;68.47;101996.97;5058997;28;19942;-77
2021/04/13 01:35:15;;;;;;;;;;;;;;;2.53;68.36;101993.81;5097329;28;19912;-77
2021/04/13 01:38:01;;;;;;;;;;;;;;;2.53;68.21;101999.28;5077947;28;19935;-77
2021/04/13 01:40:43;;;;;;;;;;;;;;;2.53;68.46;101997.38;5078678;28;20261;-78
2021/04/13 01:43:08;;;;;;;;;;;;;;;2.47;68.61;102003.69;5079600;28;19950;-77
2021/04/13 01:45:34;;;;;;;;;;;;;;;2.39;68.57;102003.88;5077071;28;19916;-77
2021/04/13 01:47:59;;;;;;;;;;;;;;;2.39;68.63;102003.88;5076194;28;19923;-77
2021/04/13 01:50:26;;;;;;;;;;;;;;;2.35;68.72;101999.84;5075192;28;19920;-77
2021/04/13 01:52:58;;;;;;;;;;;;;;;2.35;68.83;102005.34;5078239;28;20322;-77
2021/04/13 01:55:25;;;;;;;;;;;;;;;2.36;68.51;101999.63;5077123;28;19925;-77
2021/04/13 01:57:53;;;;;;;;;;;;;;;2.27;68.95;102003.59;5094748;28;19920;-77
2021/04/13 02:00:22;;;;;;;;;;;;;;;2.28;69.06;102008.03;5093665;28;20428;-77
2021/04/13 02:02:51;;;;;;;;;;;;;;;2.25;68.96;102000.19;5092613;28;19912;-77
2021/04/13 02:05:17;;;;;;;;;;;;;;;2.24;69.21;102012.22;5078013;28;20356;-77
2021/04/13 02:10:25;;;;;;;;;;;;;;;2.15;69.32;102006.06;5077302;28;19912;-77
2021/04/13 02:12:52;;;;;;;;;;;;;;;2.18;69.23;102007.56;5069026;28;20389;-77
2021/04/13 02:15:20;;;;;;;;;;;;;;;2.12;69.49;102011.97;5093584;28;19912;-77
2021/04/13 02:17:46;;;;;;;;;;;;;;;2.16;69.24;102002.25;5077839;28;19942;-77
2021/04/13 02:20:12;;;;;;;;;;;;;;;2.08;69.79;102002.44;5076906;28;19916;-77
2021/04/13 02:22:44;;;;;;;;;;;;;;;2.07;69.33;102008.97;5077888;28;19934;-77
2021/04/13 02:25:10;;;;;;;;;;;;;;;2.04;69.65;102006.63;5076461;28;19919;-77
2021/04/13 02:27:37;;;;;;;;;;;;;;;2.00;69.74;102002.59;5076245;28;19916;-77
2021/04/13 02:30:07;;;;;;;;;;;;;;;1.99;69.61;102000.91;5075976;28;20007;-77
2021/04/13 02:32:33;;;;;;;;;;;;;;;1.95;69.63;102011.44;5069977;28;19925;-77
2021/04/13 02:34:59;;;;;;;;;;;;;;;1.91;69.72;102010.13;5069911;28;19979;-77
2021/04/13 02:37:26;;;;;;;;;;;;;;;1.91;69.78;102015.59;5077798;28;19916;-77
2021/04/13 02:39:52;;;;;;;;;;;;;;;1.90;69.80;102016.66;5095272;28;19912;-77
2021/04/13 02:42:19;;;;;;;;;;;;;;;1.90;69.62;102016.66;5073494;28;20284;-77
2021/04/13 02:44:58;;;;;;;;;;;;;;;1.89;69.69;102012.19;5066298;28;19913;-77
2021/04/13 02:47:23;;;;;;;;;;;;;;;1.87;69.64;102013.47;5062593;28;19960;-77
2021/04/13 02:49:48;;;;;;;;;;;;;;;1.87;69.43;102008.84;5051220;28;19924;-77
2021/04/13 02:52:15;;;;;;;;;;;;;;;1.85;69.45;102008.19;5076521;28;19979;-77
2021/04/13 02:54:41;;;;;;;;;;;;;;;1.82;69.53;102011.31;5076399;28;19916;-77
2021/04/13 02:57:07;;;;;;;;;;;;;;;1.83;69.38;102013.00;5058412;28;19917;-77
2021/04/13 02:59:33;;;;;;;;;;;;;;;1.82;69.38;102003.09;5075213;28;19923;-77
2021/04/13 03:02:05;;;;;;;;;;;;;;;1.84;69.47;102003.75;5077737;28;19904;-77
2021/04/13 03:04:30;;;;;;;;;;;;;;;1.83;69.27;101998.47;5093140;28;19923;-77
2021/04/13 03:06:56;;;;;;;;;;;;;;;1.82;69.33;101999.53;5075901;28;19916;-77
2021/04/13 03:09:23;;;;;;;;;;;;;;;1.78;69.25;101988.97;5060980;28;20003;-77
2021/04/13 03:11:56;;;;;;;;;;;;;;;1.79;69.10;101995.28;5076342;28;19920;-77
2021/04/13 03:14:22;;;;;;;;;;;;;;;1.76;69.23;101995.69;5050371;28;19924;-77
2021/04/13 03:16:48;;;;;;;;;;;;;;;1.75;69.11;102000.28;5074429;28;19941;-77
2021/04/13 03:19:15;;;;;;;;;;;;;;;1.73;69.18;101996.94;5071992;28;19973;-76
2021/04/13 03:21:42;;;;;;;;;;;;;;;1.73;69.22;101996.94;5095085;28;19986;-77
2021/04/13 03:24:08;;;;;;;;;;;;;;;1.70;69.25;101997.34;5092959;28;20391;-77
2021/04/13 03:26:35;;;;;;;;;;;;;;;1.71;69.36;101998.19;5070684;28;19916;-77
2021/04/13 03:29:02;;;;;;;;;;;;;;;1.70;69.45;101996.47;5073870;28;19916;-77
2021/04/13 03:31:32;;;;;;;;;;;;;;;1.71;69.33;101995.44;5076535;28;19916;-77
2021/04/13 03:33:58;;;;;;;;;;;;;;;1.67;69.25;102000.47;5067572;28;19920;-77
2021/04/13 03:36:24;;;;;;;;;;;;;;;1.67;69.25;101994.13;5075929;28;19916;-77
2021/04/13 03:38:51;;;;;;;;;;;;;;;1.64;69.44;101991.78;5059994;28;19923;-77
2021/04/13 03:41:17;;;;;;;;;;;;;;;1.63;69.64;101990.94;5080530;28;20378;-77
2021/04/13 03:43:42;;;;;;;;;;;;;;;1.61;69.70;101990.28;5078451;28;19916;-77
2021/04/13 03:46:09;;;;;;;;;;;;;;;1.60;69.68;101990.50;5070012;28;20337;-77
2021/04/13 03:48:34;;;;;;;;;;;;;;;1.60;69.80;101990.50;5080712;28;19916;-76
2021/04/13 03:51:01;;;;;;;;;;;;;;;1.54;69.84;101992.16;5080055;28;19962;-77
2021/04/13 03:53:27;;;;;;;;;;;;;;;1.58;69.67;101987.94;5096699;28;19920;-77
2021/04/13 03:56:04;;;;;;;;;;;;;;;1.53;69.90;102002.25;5079176;28;19919;-77
2021/04/13 03:58:31;;;;;;;;;;;;;;;1.51;69.95;101992.53;5076473;28;19999;-77
2021/04/13 04:00:56;;;;;;;;;;;;;;;1.49;69.92;102000.94;5055151;28;19912;-77
2021/04/13 04:03:22;;;;;;;;;;;;;;;1.44;70.11;101992.47;5080896;28;19922;-77
2021/04/13 04:05:48;;;;;;;;;;;;;;;1.44;70.08;101997.94;5097373;28;19912;-77
2021/04/13 04:08:15;;;;;;;;;;;;;;;1.40;70.19;101998.56;5080069;28;20471;-77
2021/04/13 04:10:43;;;;;;;;;;;;;;;1.38;70.25;102004.22;5080937;28;19912;-77
2021/04/13 04:13:29;;;;;;;;;;;;;;;1.38;70.52;101998.75;5097027;28;19924;-77
2021/04/13 04:16:05;;;;;;;;;;;;;;;1.33;70.78;102001.22;5097065;28;19945;-77
2021/04/13 04:18:41;;;;;;;;;;;;;;;1.26;70.71;101997.59;5094424;28;19968;-77
2021/04/13 04:21:13;;;;;;;;;;;;;;;1.25;70.80;101998.59;5080177;28;21627;-77
2021/04/13 04:23:39;;;;;;;;;;;;;;;1.24;70.80;101996.94;5080461;28;19966;-77
2021/04/13 04:26:06;;;;;;;;;;;;;;;1.20;70.90;101998.34;5079564;28;19912;-77
2021/04/13 04:28:31;;;;;;;;;;;;;;;1.18;71.02;102000.44;5079027;28;19920;-77
2021/04/13 04:31:15;;;;;;;;;;;;;;;1.20;70.76;102001.09;5097756;28;19916;-77
2021/04/13 04:33:40;;;;;;;;;;;;;;;1.10;70.98;101999.53;5097680;28;19920;-77
2021/04/13 04:36:24;;;;;;;;;;;;;;;1.10;70.94;102002.25;5080354;28;20335;-76
2021/04/13 04:38:50;;;;;;;;;;;;;;;1.05;70.70;101991.06;5095243;28;19916;-77
2021/04/13 04:41:15;;;;;;;;;;;;;;;1.05;70.64;101998.41;5077244;28;20336;-77
2021/04/13 04:43:54;;;;;;;;;;;;;;;0.99;70.68;102000.03;5093733;28;19943;-77
2021/04/13 04:46:31;;;;;;;;;;;;;;;0.97;70.97;101999.38;5075377;28;19928;-76
2021/04/13 04:49:04;;;;;;;;;;;;;;;0.94;70.98;102002.50;5077184;28;19916;-76
2021/04/13 04:51:29;;;;;;;;;;;;;;;0.94;71.21;101997.03;5076309;28;20385;-77
2021/04/13 04:53:54;;;;;;;;;;;;;;;0.92;72.06;102009.22;5073562;28;19990;-77
2021/04/13 04:56:20;;;;;;;;;;;;;;;0.93;71.70;102006.28;5076112;28;20376;-77
2021/04/13 04:58:45;;;;;;;;;;;;;;;0.90;71.85;102012.16;5058104;28;19943;-77
2021/04/13 05:01:10;;;;;;;;;;;;;;;0.90;72.23;102003.94;5074976;28;19995;-76
2021/04/13 05:03:36;;;;;;;;;;;;;;;0.86;72.95;102008.09;5055502;28;20489;-77
2021/04/13 05:06:01;;;;;;;;;;;;;;;0.95;73.12;102015.16;5071587;28;19917;-76
2021/04/13 05:08:27;;;;;;;;;;;;;;;0.92;72.81;102010.09;5076131;28;19963;-76
2021/04/13 05:10:52;;;;;;;;;;;;;;;0.93;73.29;102013.66;5091296;28;20399;-76
2021/04/13 05:13:18;;;;;;;;;;;;;;;0.95;73.65;102022.50;5072105;28;19920;-75
2021/04/13 05:15:43;;;;;;;;;;;;;;;1.10;77.13;102015.94;5078155;28;19924;-75
2021/04/13 05:18:08;;;;;;;;;;;;;;;1.26;77.77;102011.28;5072237;28;20007;-75
2021/04/13 05:20:34;;;;;;;;;;;;;;;1.34;77.89;102014.72;5051575;28;20007;-75
2021/04/13 05:22:59;;;;;;;;;;;;;;;1.45;77.84;102021.56;5055309;28;19939;-75
2021/04/13 05:25:25;;;;;;;;;;;;;;;1.52;77.66;102016.97;5076182;28;20047;-75
2021/04/13 05:27:50;;;;;;;;;;;;;;;1.57;77.13;102019.13;5076068;28;19983;-75
2021/04/13 05:30:16;;;;;;;;;;;;;;;1.66;77.05;102020.66;5075496;28;19928;-75
2021/04/13 05:32:41;;;;;;;;;;;;;;;1.66;76.94;102025.31;5072404;28;19939;-74
2021/04/13 05:35:07;;;;;;;;;;;;;;;1.70;76.86;102024.72;5073905;28;19938;-75
2021/04/13 05:37:32;;;;;;;;;;;;;;;1.70;76.84;102018.38;5077149;28;19916;-75
2021/04/13 05:39:58;;;;;;;;;;;;;;;1.73;76.44;102023.47;5073865;28;20365;-75
2021/04/13 05:42:27;;;;;;;;;;;;;;;1.79;76.60;102028.16;5072550;28;20579;-75
2021/04/13 05:44:54;;;;;;;;;;;;;;;1.83;76.71;102029.44;5075504;28;20528;-75
2021/04/13 05:47:19;;;;;;;;;;;;;;;1.87;77.02;102030.75;5091104;28;19973;-75
2021/04/13 05:49:44;;;;;;;;;;;;;;;1.97;76.88;102036.72;5077485;28;19916;-75
2021/04/13 05:52:10;;;;;;;;;;;;;;;1.99;76.90;102031.88;5095056;28;19916;-75
2021/04/13 05:54:35;;;;;;;;;;;;;;;2.03;77.14;102040.53;5096505;28;20053;-75
2021/04/13 05:57:01;;;;;;;;;;;;;;;2.11;77.07;102039.56;5089193;28;19912;-76
2021/04/13 05:59:31;;;;;;;;;;;;;;;2.15;77.33;102049.91;5094931;28;19916;-76
2021/04/13 06:01:57;;;;;;;;;;;;;;;2.22;77.30;102058.19;5093925;28;19912;-75
2021/04/13 06:04:22;;;;;;;;;;;;;;;2.33;77.16;102059.53;5096378;28;19916;-76
2021/04/13 06:06:48;;;;;;;;;;;;;;;2.39;77.14;102067.78;5070961;28;19991;-76
2021/04/13 06:09:13;;;;;;;;;;;;;;;2.50;77.28;102068.25;5057680;28;19916;-76
2021/04/13 06:11:40;;;;;;;;;;;;;;;2.60;77.31;102069.59;5075877;28;19923;-76
2021/04/13 06:14:05;;;;;;;;;;;;;;;2.69;77.11;102062.88;5064951;28;20402;-76
2021/04/13 06:16:38;;;;;;;;;;;;;;;2.83;77.13;102068.44;5075156;28;19912;-76
2021/04/13 06:19:04;;;;;;;;;;;;;;;2.96;76.66;102073.13;5093113;28;19920;-76
2021/04/13 06:21:29;;;;;;;;;;;;;;;3.07;76.74;102067.03;5073779;28;19912;-76
2021/04/13 06:23:54;;;;;;;;;;;;;;;3.21;76.73;102076.16;5087769;28;20000;-77
2021/04/13 06:26:20;;;;;;;;;;;;;;;3.32;76.54;102078.31;5096731;28;19934;-76
2021/04/13 06:28:46;;;;;;;;;;;;;;;3.45;77.00;102082.97;5095992;28;19955;-77
2021/04/13 06:31:11;;;;;;;;;;;;;;;3.57;77.91;102082.16;5054441;28;19913;-77
2021/04/13 06:33:36;;;;;;;;;;;;;;;3.70;78.48;102069.47;5077371;28;19920;-74
2021/04/13 06:36:02;;;;;;;;;;;;;;;3.83;77.96;102076.91;5083780;28;19943;-73
2021/04/13 06:38:28;;;;;;;;;;;;;;;3.96;77.52;102071.41;5057910;28;19923;-73
2021/04/13 06:41:01;;;;;;;;;;;;;;;4.09;78.60;102073.28;5072144;28;20380;-74
2021/04/13 06:43:26;;;;;;;;;;;;;;;4.23;77.46;102073.06;5068211;28;20002;-73
2021/04/13 06:46:30;;;;;;;;;;;;;;;4.37;77.20;102082.13;5071585;28;20007;-74
2021/04/13 06:49:15;;;;;;;;;;;;;;;4.56;77.48;102085.91;4994155;28;19922;-74
2021/04/13 06:51:44;;;;;;;;;;;;;;;4.73;76.83;102080.75;4991318;28;20001;-74
2021/04/13 06:54:15;;;;;;;;;;;;;;;4.86;76.55;102085.38;5019628;28;19926;-74
2021/04/13 06:56:43;;;;;;;;;;;;;;;5.00;77.32;102078.75;5074207;28;19918;-74
2021/04/13 06:59:18;;;;;;;;;;;;;;;5.15;76.43;102082.09;5075107;28;20777;-74
2021/04/13 07:01:45;;;;;;;;;;;;;;;5.28;75.82;102086.66;5077480;28;19912;-74
2021/04/13 07:04:11;;;;;;;;;;;;;;;5.42;75.61;102092.94;5075842;28;20094;-74
2021/04/13 07:06:40;;;;;;;;;;;;;;;5.56;74.78;102086.28;5042686;28;19919;-74
2021/04/13 07:09:08;;;;;;;;;;;;;;;5.70;74.82;102092.53;5077409;28;19923;-74
2021/04/13 07:11:46;;;;;;;;;;;;;;;5.84;74.90;102085.03;5092654;28;19920;-74
2021/04/13 07:14:22;;;;;;;;;;;;;;;5.98;74.09;102083.88;5075496;28;20399;-76
2021/04/13 07:16:47;;;;;;;;;;;;;;;6.12;73.65;102095.63;5096603;28;19935;-74
2021/04/13 07:19:23;;;;;;;;;;;;;;;6.25;73.28;102095.53;5076304;28;19926;-74
2021/04/13 07:21:55;;;;;;;;;;;;;;;6.41;72.68;102096.03;5081721;28;19912;-74
2021/04/13 07:24:23;;;;;;;;;;;;;;;6.54;72.59;102090.34;5081034;28;20435;-74
2021/04/13 07:26:51;;;;;;;;;;;;;;;6.72;71.47;102100.56;5079846;28;19986;-74
2021/04/13 07:29:18;;;;;;;;;;;;;;;6.86;69.92;102110.38;5076709;28;19923;-74
2021/04/13 07:31:52;;;;;;;;;;;;;;;7.08;68.75;102104.41;5063045;28;20335;-74
2021/04/13 07:34:17;;;;;;;;;;;;;;;7.19;68.10;102095.34;5060136;28;19930;-74
2021/04/13 07:36:44;;;;;;;;;;;;;;;7.32;67.24;102097.06;5078899;28;19916;-74
2021/04/13 07:39:09;;;;;;;;;;;;;;;7.43;67.70;102096.25;5057955;28;19919;-74
2021/04/13 07:41:43;;;;;;;;;;;;;;;7.58;67.01;102101.38;5048431;28;19924;-74
2021/04/13 07:44:19;;;;;;;;;;;;;;;7.70;66.18;102107.78;5087896;28;19919;-77
2021/04/13 07:46:44;;;;;;;;;;;;;;;7.82;65.87;102100.34;5065897;28;19921;-77
2021/04/13 07:49:14;;;;;;;;;;;;;;;8.00;64.70;102101.38;5093103;28;20684;-77
2021/04/13 07:51:40;;;;;;;;;;;;;;;7.98;63.93;102103.50;5079732;28;19961;-77
2021/04/13 07:54:07;;;;;;;;;;;;;;;8.02;63.44;102104.72;5092608;28;19924;-77
2021/04/13 07:56:39;;;;;;;;;;;;;;;8.13;62.83;102108.59;5078989;28;19916;-77
2021/04/13 07:59:24;;;;;;;;;;;;;;;8.25;63.59;102113.06;5076470;28;20006;-77
2021/04/13 08:01:49;;;;;;;;;;;;;;;8.41;63.59;102105.13;5076882;28;19916;-77
2021/04/13 08:04:16;;;;;;;;;;;;;;;8.57;62.99;102107.19;5098877;28;19927;-77
2021/04/13 08:06:43;;;;;;;;;;;;;;;8.71;62.66;102096.69;5072965;28;20011;-77
2021/04/13 08:09:11;;;;;;;;;;;;;;;8.85;61.93;102100.88;5061517;28;19923;-78
2021/04/13 08:11:36;;;;;;;;;;;;;;;8.82;59.66;102103.31;5077961;28;20284;-78
2021/04/13 08:14:18;;;;;;;;;;;;;;;8.75;58.54;102102.59;5072744;28;19921;-78
2021/04/13 08:16:44;;;;;;;;;;;;;;;9.01;57.48;102095.69;5073817;28;19916;-76
2021/04/13 08:19:22;;;;;;;;;;;;;;;9.15;57.27;102108.16;5077798;28;19923;-78
2021/04/13 08:22:06;;;;;;;;;;;;;;;9.26;57.54;102100.91;5096928;28;19938;-77
2021/04/13 08:24:38;;;;;;;;;;;;;;;9.32;58.00;102097.97;5078211;28;19939;-77
2021/04/13 08:27:24;;;;;;;;;;;;;;;9.45;57.70;102102.41;5058846;28;19952;-77
2021/04/13 08:29:59;;;;;;;;;;;;;;;9.60;57.08;102107.38;5081895;28;20432;-77
2021/04/13 08:32:50;;;;;;;;;;;;;;;9.70;57.76;102109.53;5078650;28;20421;-75
2021/04/13 08:35:21;;;;;;;;;;;;;;;9.78;56.12;102109.13;5098219;28;19989;-78
2021/04/13 08:37:51;;;;;;;;;;;;;;;9.62;56.15;102114.38;5077331;28;19920;-78
2021/04/13 08:40:26;;;;;;;;;;;;;;;9.50;54.96;102110.81;5074934;28;19927;-78
2021/04/13 08:43:15;;;;;;;;;;;;;;;9.72;54.27;102115.66;5085030;28;19954;-78
2021/04/13 08:45:45;;;;;;;;;;;;;;;9.76;53.23;102119.63;5090743;28;19975;-78
2021/04/13 08:48:17;;;;;;;;;;;;;;;9.89;52.67;102112.91;5039349;28;19964;-77
2021/04/13 08:50:50;;;;;;;;;;;;;;;9.95;52.26;102123.84;5052257;28;19917;-77
2021/04/13 08:53:19;;;;;;;;;;;;;;;9.92;51.88;102121.59;5097334;28;19928;-77
2021/04/13 08:55:45;;;;;;;;;;;;;;;9.71;51.34;102125.06;5097921;28;19916;-77
2021/04/13 08:58:13;;;;;;;;;;;;;;;9.98;51.85;102116.97;5098144;28;19923;-78
2021/04/13 09:00:44;;;;;;;;;;;;;;;10.05;52.79;102112.91;5095141;28;19916;-78
2021/04/13 09:03:11;;;;;;;;;;;;;;;10.04;51.36;102121.50;5059687;28;20482;-78
2021/04/13 09:05:38;;;;;;;;;;;;;;;9.93;50.94;102114.94;5063866;28;19916;-77
2021/04/13 09:08:13;;;;;;;;;;;;;;;10.03;51.41;102117.06;5054251;28;19920;-78
2021/04/13 09:10:47;;;;;;;;;;;;;;;9.97;52.60;102120.81;5059155;28;19923;-78
2021/04/13 09:13:22;;;;;;;;;;;;;;;10.18;52.06;102116.47;5095732;28;19932;-78
2021/04/13 09:15:56;;;;;;;;;;;;;;;10.31;51.48;102116.16;5077676;28;19916;-78
2021/04/13 09:18:28;;;;;;;;;;;;;;;10.26;51.25;102116.03;5077944;28;19923;-78
2021/04/13 09:21:06;;;;;;;;;;;;;;;10.46;49.75;102108.06;5079135;28;19922;-78
2021/04/13 09:23:47;;;;;;;;;;;;;;;10.44;49.23;102120.50;5096120;28;20400;-77
2021/04/13 09:26:14;;;;;;;;;;;;;;;10.54;47.96;102117.06;5095488;28;20440;-77
2021/04/13 09:28:45;;;;;;;;;;;;;;;10.52;47.72;102120.09;5077277;28;19948;-78
2021/04/13 09:31:10;;;;;;;;;;;;;;;10.51;46.49;102122.03;5095720;28;20007;-78
2021/04/13 09:33:40;;;;;;;;;;;;;;;10.49;46.11;102123.38;5097101;28;19967;-78
2021/04/13 09:36:05;;;;;;;;;;;;;;;10.49;46.89;102120.59;5086756;28;19916;-78
2021/04/13 09:38:39;;;;;;;;;;;;;;;10.47;45.64;102131.97;5059344;28;20546;-78
2021/04/13 09:41:14;;;;;;;;;;;;;;;10.42;45.03;102128.25;5071839;28;21287;-77
2021/04/13 09:43:57;;;;;;;;;;;;;;;10.39;45.87;102126.84;5091780;28;19916;-77
2021/04/13 09:46:30;;;;;;;;;;;;;;;10.51;45.22;102118.41;5093694;28;19927;-78
2021/04/13 09:49:01;;;;;;;;;;;;;;;10.49;44.63;102121.44;5093856;28;20318;-78
2021/04/13 09:51:45;;;;;;;;;;;;;;;10.50;45.61;102120.34;5095146;28;19916;-77
2021/04/13 09:54:21;;;;;;;;;;;;;;;10.61;45.16;102120.50;5092509;28;19942;-78
2021/04/13 09:57:01;;;;;;;;;;;;;;;10.68;45.39;102112.81;5087372;28;20313;-77
2021/04/13 09:59:27;;;;;;;;;;;;;;;10.83;45.41;102110.25;5094873;28;20355;-79
2021/04/13 10:02:11;;;;;;;;;;;;;;;10.87;46.43;102105.88;5075429;28;19916;-77
2021/04/13 10:04:55;;;;;;;;;;;;;;;11.00;46.02;102112.97;5071562;28;19927;-78
2021/04/13 10:07:33;;;;;;;;;;;;;;;11.07;46.38;102116.41;5093907;28;19916;-78
2021/04/13 10:10:00;;;;;;;;;;;;;;;11.21;46.12;102118.81;5088285;28;19920;-77
2021/04/13 10:12:32;;;;;;;;;;;;;;;11.22;44.70;102104.63;5072477;28;19924;-78
2021/04/13 10:15:03;;;;;;;;;;;;;;;11.23;45.14;102106.34;5066179;28;19942;-77
2021/04/13 10:17:30;;;;;;;;;;;;;;;10.94;45.59;102109.28;5050996;28;20364;-77
2021/04/13 10:20:10;;;;;;;;;;;;;;;10.81;45.06;102098.56;5074868;28;19919;-78
2021/04/13 10:22:59;;;;;;;;;;;;;;;11.13;44.92;102100.63;5076701;28;19927;-77
2021/04/13 10:25:27;;;;;;;;;;;;;;;11.21;42.95;102102.13;5054722;28;19928;-78
2021/04/13 10:28:11;;;;;;;;;;;;;;;11.34;43.52;102108.13;5089298;28;19912;-77
2021/04/13 10:30:45;;;;;;;;;;;;;;;11.39;42.65;102110.97;5095655;28;19971;-78
2021/04/13 10:33:20;;;;;;;;;;;;;;;11.38;41.66;102105.66;5086442;28;19998;-78
2021/04/13 10:36:04;;;;;;;;;;;;;;;11.38;41.32;102102.88;5093625;28;19969;-78
2021/04/13 10:38:54;;;;;;;;;;;;;;;11.50;41.28;102094.38;5093777;28;19912;-75
2021/04/13 10:41:28;;;;;;;;;;;;;;;11.56;41.20;102088.63;5071293;28;19920;-75
2021/04/13 10:43:53;;;;;;;;;;;;;;;11.60;41.44;102098.13;5084205;28;19919;-75
2021/04/13 10:46:23;;;;;;;;;;;;;;;11.46;42.44;102093.25;5071409;28;19920;-75
2021/04/13 10:48:59;;;;;;;;;;;;;;;10.98;43.48;102089.31;5059800;28;19998;-75
2021/04/13 10:51:57;;;;;;;;;;;;;;;11.37;43.35;102074.22;5081551;28;20343;-75
2021/04/13 10:54:41;;;;;;;;;;;;;;;11.55;44.02;102083.31;5062369;28;20002;-75
2021/04/13 10:57:18;;;;;;;;;;;;;;;11.70;42.73;102072.34;5089998;28;19916;-75
2021/04/13 10:59:51;;;;;;;;;;;;;;;11.87;41.93;102068.59;5094040;28;19916;-75
2021/04/13 11:02:26;;;;;;;;;;;;;;;11.97;41.93;102052.00;5075470;28;19999;-75
2021/04/13 11:05:06;;;;;;;;;;;;;;;12.15;41.48;102050.75;5095979;28;19953;-75
2021/04/13 11:07:41;;;;;;;;;;;;;;;12.20;42.03;102050.78;5099753;28;19994;-74
2021/04/13 11:10:10;;;;;;;;;;;;;;;12.25;42.42;102050.81;5081002;28;19920;-75
2021/04/13 11:13:01;;;;;;;;;;;;;;;12.10;42.85;102047.94;5098136;28;19932;-75
2021/04/13 11:15:46;;;;;;;;;;;;;;;11.76;42.53;102054.59;5078115;28;19923;-75
2021/04/13 11:18:11;;;;;;;;;;;;;;;11.97;43.84;102054.78;5071041;28;19916;-75
2021/04/13 11:20:45;;;;;;;;;;;;;;;12.19;41.85;102049.94;5081404;28;19999;-75
2021/04/13 11:23:30;;;;;;;;;;;;;;;12.16;41.48;102046.88;5095888;28;19938;-75
2021/04/13 11:25:58;;;;;;;;;;;;;;;12.26;41.85;102045.00;5069424;28;19969;-75
2021/04/13 11:28:30;;;;;;;;;;;;;;;12.38;41.27;102052.31;5057809;28;20333;-76
2021/04/13 11:30:55;;;;;;;;;;;;;;;12.38;41.75;102046.75;5090937;28;20011;-76
2021/04/13 11:33:32;;;;;;;;;;;;;;;12.57;41.05;102030.41;5098638;28;19958;-76
2021/04/13 11:36:04;;;;;;;;;;;;;;;12.66;40.75;102035.19;5071322;28;20372;-76
2021/04/13 11:38:32;;;;;;;;;;;;;;;12.71;41.40;102043.56;5079615;28;20334;-76
2021/04/13 11:41:10;;;;;;;;;;;;;;;12.79;40.45;102038.56;5081353;28;20448;-76
2021/04/13 11:43:45;;;;;;;;;;;;;;;12.71;40.21;102029.63;5099092;28;19916;-76
2021/04/13 11:46:12;;;;;;;;;;;;;;;12.78;41.44;102037.75;5057338;28;19974;-75
2021/04/13 11:48:59;;;;;;;;;;;;;;;12.82;41.20;102040.84;5071600;28;19938;-76
2021/04/13 11:51:28;;;;;;;;;;;;;;;12.43;41.61;102032.84;5058240;28;19970;-75
2021/04/13 11:53:53;;;;;;;;;;;;;;;12.22;41.31;102027.13;5068085;28;19943;-76
2021/04/13 11:56:22;;;;;;;;;;;;;;;12.45;42.62;102025.03;5057543;28;19924;-75
2021/04/13 11:59:05;;;;;;;;;;;;;;;12.53;41.87;102018.94;5074575;28;19923;-76
2021/04/13 12:01:31;;;;;;;;;;;;;;;12.36;42.41;102021.91;5072302;28;19917;-75
2021/04/13 12:04:01;;;;;;;;;;;;;;;12.18;42.38;102022.38;5077733;28;19913;-75
2021/04/13 12:06:45;;;;;;;;;;;;;;;12.45;42.43;102009.19;5043120;28;19916;-75
2021/04/13 12:09:10;;;;;;;;;;;;;;;12.40;42.06;102019.44;5077584;28;19967;-75
2021/04/13 12:11:44;;;;;;;;;;;;;;;12.14;40.21;102022.06;5062680;28;19928;-75
2021/04/13 12:14:28;;;;;;;;;;;;;;;12.41;40.60;102021.13;5075991;28;19916;-76
2021/04/13 12:16:54;;;;;;;;;;;;;;;12.59;40.72;102009.53;5056039;28;19916;-75
2021/04/13 12:19:19;;;;;;;;;;;;;;;12.62;40.96;102005.34;5074768;28;19924;-76
2021/04/13 12:21:49;;;;;;;;;;;;;;;12.21;40.49;102022.66;5069878;28;20266;-76
2021/04/13 12:24:32;;;;;;;;;;;;;;;12.35;41.58;102013.84;5078454;28;19923;-75
2021/04/13 12:26:58;;;;;;;;;;;;;;;12.60;40.84;102005.63;5077136;28;19924;-75
2021/04/13 12:29:29;;;;;;;;;;;;;;;12.61;41.58;102006.44;5074206;28;19916;-76
2021/04/13 12:32:13;;;;;;;;;;;;;;;12.34;40.00;102014.94;5075150;28;20273;-76
2021/04/13 12:34:44;;;;;;;;;;;;;;;12.47;40.42;102006.94;5052172;28;19924;-75
2021/04/13 12:37:28;;;;;;;;;;;;;;;12.30;40.72;102007.13;5067900;28;19916;-76
2021/04/13 12:39:55;;;;;;;;;;;;;;;12.43;40.43;101996.63;5073854;28;19951;-76
2021/04/13 12:42:28;;;;;;;;;;;;;;;12.20;39.23;102004.28;5058319;28;19940;-75
2021/04/13 12:45:26;;;;;;;;;;;;;;;12.43;40.71;101988.25;5067631;28;20483;-76
2021/04/13 12:48:09;;;;;;;;;;;;;;;12.28;41.40;101984.25;5018185;28;19920;-75
2021/04/13 12:50:35;;;;;;;;;;;;;;;12.01;39.88;101992.75;5056299;28;19978;-76
2021/04/13 12:53:01;;;;;;;;;;;;;;;12.12;40.82;101985.28;5072206;28;19917;-75
2021/04/13 12:55:27;;;;;;;;;;;;;;;12.24;40.51;101982.28;5073925;28;19936;-76
2021/04/13 12:57:54;;;;;;;;;;;;;;;12.38;40.48;101979.88;5076757;28;19912;-76
2021/04/13 13:00:20;;;;;;;;;;;;;;;12.57;41.50;101974.69;5073022;28;20346;-75
2021/04/13 13:02:49;;;;;;;;;;;;;;;12.37;41.15;101972.59;5074627;28;20359;-76